Time;durP1;ratioP1;P1;durP2;ratioP2;P2;SDS_P1;SDS_P2;PMS_P1;PMS_P2;Temp;Humidity;BMP_temperature;BMP_pressure;BME280_temperature;BME280_humidity;BME280_pressure;Samples;Min_cycle;Max_cycle;Signal;HPM_P1;HPM_P2
2024/01/29 00:00:52;;;;;;;5.90;3.10;;;4.80;99.90;;;;;;4937692;29;20036;-76
2024/01/29 00:03:17;;;;;;;7.93;3.70;;;4.80;99.90;;;;;;4938222;28;20519;-77
2024/01/29 00:05:44;;;;;;;6.70;3.70;;;4.70;99.90;;;;;;4955586;28;20042;-74
2024/01/29 00:08:10;;;;;;;8.48;3.90;;;4.70;99.90;;;;;;4954596;28;20572;-75
2024/01/29 00:10:35;;;;;;;8.98;3.78;;;4.70;99.90;;;;;;4937838;29;20047;-76
2024/01/29 00:13:01;;;;;;;6.28;3.38;;;4.70;99.90;;;;;;4938048;28;20034;-75
2024/01/29 00:15:27;;;;;;;7.45;3.20;;;4.70;99.90;;;;;;4954656;28;20054;-75
2024/01/29 00:17:52;;;;;;;7.78;3.38;;;4.70;99.90;;;;;;4955224;28;20063;-77
2024/01/29 00:20:18;;;;;;;13.50;3.60;;;4.70;99.90;;;;;;4955081;29;20039;-78
2024/01/29 00:22:43;;;;;;;10.07;4.00;;;4.60;99.90;;;;;;4937108;29;20038;-74
2024/01/29 00:25:09;;;;;;;7.70;3.22;;;4.60;99.90;;;;;;4954435;28;20864;-75
2024/01/29 00:27:35;;;;;;;8.50;3.83;;;4.60;99.90;;;;;;4937487;29;20038;-75
2024/01/29 00:30:03;;;;;;;8.73;4.22;;;4.50;99.90;;;;;;4937558;29;20048;-75
2024/01/29 00:32:29;;;;;;;8.38;3.50;;;4.50;99.90;;;;;;4954108;28;20070;-74
2024/01/29 00:34:55;;;;;;;7.78;3.58;;;4.50;99.90;;;;;;4937221;29;20032;-75
2024/01/29 00:37:22;;;;;;;9.18;3.28;;;4.50;99.90;;;;;;4954060;28;20038;-75
2024/01/29 00:39:49;;;;;;;6.38;3.38;;;4.50;99.90;;;;;;4954994;28;20024;-76
2024/01/29 00:42:14;;;;;;;8.18;3.58;;;4.50;99.90;;;;;;4953508;28;20078;-74
2024/01/29 00:44:40;;;;;;;9.30;3.70;;;4.50;99.90;;;;;;4937665;29;20061;-75
2024/01/29 00:47:06;;;;;;;6.30;3.17;;;4.60;99.90;;;;;;4954594;28;20024;-75
2024/01/29 00:49:32;;;;;;;6.47;3.40;;;4.50;99.90;;;;;;4954252;28;20119;-75
2024/01/29 00:51:58;;;;;;;7.40;3.67;;;4.50;99.90;;;;;;4937604;28;20023;-74
2024/01/29 00:54:24;;;;;;;14.57;3.70;;;4.50;99.90;;;;;;4954491;28;20443;-74
2024/01/29 00:56:49;;;;;;;6.47;3.30;;;4.50;99.90;;;;;;4954280;28;20043;-74
2024/01/29 00:59:15;;;;;;;5.90;3.22;;;4.50;99.90;;;;;;4955333;28;20028;-75
2024/01/29 01:01:40;;;;;;;8.25;3.05;;;4.50;99.90;;;;;;4936795;29;20034;-75
2024/01/29 01:04:07;;;;;;;9.18;3.75;;;4.50;99.90;;;;;;4954477;28;20028;-76
2024/01/29 01:06:32;;;;;;;8.02;3.28;;;4.40;99.90;;;;;;4954044;28;20023;-74
2024/01/29 01:08:58;;;;;;;5.05;3.55;;;4.40;99.90;;;;;;4953389;29;20074;-75
2024/01/29 01:11:23;;;;;;;7.53;3.60;;;4.40;99.90;;;;;;4954012;28;20019;-75
2024/01/29 01:13:49;;;;;;;11.68;3.92;;;4.40;99.90;;;;;;4955009;29;20027;-75
2024/01/29 01:16:15;;;;;;;8.02;3.85;;;4.40;99.90;;;;;;4937030;29;20122;-74
2024/01/29 01:18:41;;;;;;;7.80;3.85;;;4.40;99.90;;;;;;4936972;29;20054;-74
2024/01/29 01:21:06;;;;;;;7.70;3.42;;;4.40;99.90;;;;;;4953828;28;20115;-74
2024/01/29 01:23:32;;;;;;;8.55;3.25;;;4.40;99.90;;;;;;4953426;28;20084;-74
2024/01/29 01:25:57;;;;;;;5.00;2.60;;;4.40;99.90;;;;;;4954946;28;20225;-75
2024/01/29 01:28:23;;;;;;;7.18;3.15;;;4.40;99.90;;;;;;4955082;29;20058;-75
2024/01/29 01:30:49;;;;;;;8.05;3.15;;;4.40;99.90;;;;;;4936180;29;20554;-76
2024/01/29 01:33:14;;;;;;;9.57;3.17;;;4.40;99.90;;;;;;4936879;28;20054;-76
2024/01/29 01:35:40;;;;;;;9.00;3.78;;;4.40;99.90;;;;;;4953738;29;20051;-76
2024/01/29 01:38:06;;;;;;;5.43;3.10;;;4.50;99.90;;;;;;4936162;28;20031;-76
2024/01/29 01:40:31;;;;;;;7.20;3.47;;;4.60;99.90;;;;;;4936311;29;20042;-75
2024/01/29 01:42:57;;;;;;;8.85;3.55;;;4.50;99.90;;;;;;4936152;29;20058;-74
2024/01/29 01:45:22;;;;;;;7.38;3.33;;;4.50;99.90;;;;;;4935851;29;20027;-76
2024/01/29 01:47:48;;;;;;;6.53;2.85;;;4.50;99.90;;;;;;4953691;28;20055;-76
2024/01/29 01:50:14;;;;;;;6.28;2.90;;;4.50;99.90;;;;;;4953633;28;20035;-75
2024/01/29 01:52:40;;;;;;;6.53;3.10;;;4.50;99.90;;;;;;4935842;29;20070;-76
2024/01/29 01:55:06;;;;;;;7.53;3.45;;;4.50;99.90;;;;;;4935402;29;20083;-76
2024/01/29 01:57:32;;;;;;;5.20;3.00;;;4.50;99.90;;;;;;4936406;28;21341;-75
2024/01/29 01:59:58;;;;;;;6.50;3.42;;;4.50;99.90;;;;;;4936044;29;20031;-75
2024/01/29 02:02:24;;;;;;;6.90;3.15;;;4.50;99.90;;;;;;4936125;29;20452;-75
2024/01/29 02:04:50;;;;;;;7.60;3.30;;;4.50;99.90;;;;;;4936039;29;20046;-76
2024/01/29 02:07:15;;;;;;;10.75;3.75;;;4.50;99.90;;;;;;4952397;29;20030;-75
2024/01/29 02:09:41;;;;;;;10.02;3.60;;;4.50;99.90;;;;;;4952947;28;20089;-75
2024/01/29 02:12:10;;;;;;;7.22;3.70;;;4.50;99.90;;;;;;4935822;28;20066;-75
2024/01/29 02:14:36;;;;;;;8.50;3.70;;;4.50;99.90;;;;;;4935510;29;20031;-76
2024/01/29 02:17:01;;;;;;;7.60;3.63;;;4.50;99.90;;;;;;4935825;29;20045;-76
2024/01/29 02:19:27;;;;;;;10.13;3.50;;;4.50;99.90;;;;;;4952654;28;20504;-75
2024/01/29 02:21:54;;;;;;;8.85;3.47;;;4.50;99.90;;;;;;4950784;28;20563;-77
2024/01/29 02:24:19;;;;;;;8.02;3.78;;;4.50;99.90;;;;;;4935822;29;20024;-77
2024/01/29 02:26:47;;;;;;;9.05;4.00;;;4.50;99.90;;;;;;4952840;28;20098;-76
2024/01/29 02:29:12;;;;;;;8.77;3.80;;;4.50;99.90;;;;;;4935454;29;20034;-76
2024/01/29 02:31:38;;;;;;;9.05;4.20;;;4.40;99.90;;;;;;4935406;29;20035;-77
2024/01/29 02:34:04;;;;;;;10.80;3.97;;;4.40;99.90;;;;;;4953139;28;20099;-75
2024/01/29 02:36:29;;;;;;;11.15;4.13;;;4.40;99.90;;;;;;4934619;29;20507;-76
2024/01/29 02:38:55;;;;;;;7.47;3.95;;;4.30;99.90;;;;;;4935176;28;20048;-77
2024/01/29 02:41:20;;;;;;;7.18;3.92;;;4.30;99.90;;;;;;4952858;28;20031;-77
2024/01/29 02:43:46;;;;;;;7.95;3.80;;;4.40;99.90;;;;;;4953547;29;20035;-76
2024/01/29 02:46:11;;;;;;;9.90;3.38;;;4.40;99.90;;;;;;4936077;29;20083;-77
2024/01/29 02:48:38;;;;;;;11.82;3.45;;;4.30;99.90;;;;;;4952450;28;20123;-76
2024/01/29 02:51:04;;;;;;;8.50;3.50;;;4.30;99.90;;;;;;4935429;28;20055;-76
2024/01/29 02:53:29;;;;;;;8.18;3.63;;;4.30;99.90;;;;;;4934571;28;20028;-76
2024/01/29 02:55:55;;;;;;;8.25;3.45;;;4.20;99.90;;;;;;4952173;28;20067;-75
2024/01/29 02:58:20;;;;;;;8.25;3.40;;;4.30;99.90;;;;;;4935289;29;20030;-75
2024/01/29 03:00:46;;;;;;;9.27;3.70;;;4.30;99.90;;;;;;4953035;28;20020;-77
2024/01/29 03:03:13;;;;;;;6.95;3.53;;;4.30;99.90;;;;;;4936299;29;20020;-76
2024/01/29 03:05:38;;;;;;;4.90;3.08;;;4.30;99.90;;;;;;4952821;28;20039;-76
2024/01/29 03:08:04;;;;;;;6.38;3.25;;;4.20;99.90;;;;;;4934627;29;20059;-76
2024/01/29 03:10:30;;;;;;;9.45;3.38;;;4.20;99.90;;;;;;4952408;28;20039;-76
2024/01/29 03:12:57;;;;;;;8.23;3.38;;;4.20;99.90;;;;;;4953141;28;20019;-76
2024/01/29 03:15:24;;;;;;;7.20;3.28;;;4.20;99.90;;;;;;4935483;28;20027;-76
2024/01/29 03:17:50;;;;;;;7.60;3.55;;;4.20;99.90;;;;;;4952858;28;20047;-76
2024/01/29 03:20:16;;;;;;;8.50;3.40;;;4.20;99.90;;;;;;4954695;28;20050;-76
2024/01/29 03:22:41;;;;;;;11.10;3.88;;;4.20;99.90;;;;;;4955177;28;20026;-75
2024/01/29 03:25:07;;;;;;;6.47;3.08;;;4.20;99.90;;;;;;4938837;28;20023;-76
2024/01/29 03:27:33;;;;;;;7.43;3.63;;;4.20;99.90;;;;;;4938475;29;20118;-75
2024/01/29 03:29:58;;;;;;;6.10;3.88;;;4.20;99.90;;;;;;4956785;28;20027;-75
2024/01/29 03:32:24;;;;;;;6.63;4.03;;;4.20;99.90;;;;;;4939388;29;20446;-75
2024/01/29 03:34:49;;;;;;;9.80;3.63;;;4.10;99.90;;;;;;4938582;29;20019;-76
2024/01/29 03:37:15;;;;;;;11.23;4.00;;;4.10;99.90;;;;;;4938704;29;20404;-77
2024/01/29 03:39:41;;;;;;;6.57;3.67;;;4.10;99.90;;;;;;4955966;29;20027;-74
2024/01/29 03:42:06;;;;;;;9.75;4.00;;;4.10;99.90;;;;;;4938157;29;20034;-77
2024/01/29 03:44:32;;;;;;;8.55;4.00;;;4.00;99.90;;;;;;4938271;29;20091;-76
2024/01/29 03:46:57;;;;;;;5.97;3.58;;;4.00;99.90;;;;;;4955712;28;20020;-76
2024/01/29 03:49:23;;;;;;;9.93;3.92;;;4.00;99.90;;;;;;4955421;28;20027;-77
2024/01/29 03:51:48;;;;;;;7.53;3.72;;;4.00;99.90;;;;;;4955578;28;20030;-77
2024/01/29 03:54:14;;;;;;;8.98;3.60;;;4.00;99.90;;;;;;4938677;29;20047;-76
2024/01/29 03:56:39;;;;;;;9.55;3.85;;;4.00;99.90;;;;;;4937653;29;20119;-76
2024/01/29 03:59:10;;;;;;;8.02;3.85;;;3.90;99.90;;;;;;4955379;28;20086;-77
2024/01/29 04:01:37;;;;;;;8.18;3.63;;;3.90;99.90;;;;;;4955282;28;20110;-76
2024/01/29 04:04:03;;;;;;;6.63;3.88;;;3.90;99.90;;;;;;4954727;29;20026;-76
2024/01/29 04:06:28;;;;;;;9.77;3.97;;;3.90;99.90;;;;;;4938059;29;20120;-75
2024/01/29 04:08:54;;;;;;;9.13;3.65;;;3.80;99.90;;;;;;4955187;28;20055;-76
2024/01/29 04:11:19;;;;;;;9.32;3.83;;;3.80;99.90;;;;;;4938288;29;20030;-77
2024/01/29 04:13:45;;;;;;;8.90;3.83;;;3.80;99.90;;;;;;4938734;29;20031;-76
2024/01/29 04:16:11;;;;;;;7.45;3.55;;;3.80;99.90;;;;;;4937866;29;20039;-76
2024/01/29 04:18:40;;;;;;;6.30;3.45;;;3.80;99.90;;;;;;4937234;29;20024;-76
2024/01/29 04:21:06;;;;;;;8.80;3.63;;;3.80;99.90;;;;;;4937786;29;20023;-75
2024/01/29 04:23:34;;;;;;;7.45;3.05;;;3.70;99.90;;;;;;4938076;29;20047;-76
2024/01/29 04:25:59;;;;;;;7.72;3.40;;;3.70;99.90;;;;;;4955761;28;20027;-77
2024/01/29 04:28:25;;;;;;;10.65;3.45;;;3.80;99.90;;;;;;4938543;28;20033;-75
2024/01/29 04:30:50;;;;;;;6.45;3.17;;;3.70;99.90;;;;;;4954381;28;20023;-75
2024/01/29 04:33:16;;;;;;;8.13;3.25;;;3.70;99.90;;;;;;4955544;28;20032;-76
2024/01/29 04:35:41;;;;;;;6.30;3.25;;;3.70;99.90;;;;;;4938264;29;20102;-76
2024/01/29 04:38:07;;;;;;;6.22;3.05;;;3.80;99.90;;;;;;4938207;29;20023;-75
2024/01/29 04:40:38;;;;;;;6.68;3.30;;;3.80;99.90;;;;;;4954748;29;20039;-75
2024/01/29 04:43:04;;;;;;;7.55;3.75;;;3.80;99.90;;;;;;4937731;29;20028;-76
2024/01/29 04:45:30;;;;;;;8.38;3.05;;;3.80;99.90;;;;;;4954857;28;20028;-76
2024/01/29 04:47:55;;;;;;;8.05;3.40;;;3.70;99.90;;;;;;4955106;28;20024;-77
2024/01/29 04:50:21;;;;;;;6.45;3.45;;;3.80;99.90;;;;;;4955164;29;20083;-77
2024/01/29 04:52:47;;;;;;;8.30;3.60;;;3.80;99.90;;;;;;4937867;29;20016;-77
2024/01/29 04:55:12;;;;;;;6.47;3.17;;;3.70;99.90;;;;;;4954772;28;20114;-76
2024/01/29 04:57:38;;;;;;;6.30;3.13;;;3.70;99.90;;;;;;4953712;28;20039;-75
2024/01/29 05:00:05;;;;;;;10.38;3.20;;;3.70;99.90;;;;;;4938061;29;20040;-76
2024/01/29 05:02:30;;;;;;;5.95;3.00;;;3.70;99.90;;;;;;4952727;28;20023;-76
2024/01/29 05:04:56;;;;;;;6.82;3.22;;;3.70;99.90;;;;;;4953451;29;20032;-77
2024/01/29 05:07:22;;;;;;;6.60;3.40;;;3.70;99.90;;;;;;4952831;28;20477;-78
2024/01/29 05:09:48;;;;;;;5.85;3.17;;;3.70;99.90;;;;;;4938727;29;20051;-77
2024/01/29 05:12:13;;;;;;;9.38;3.85;;;3.70;99.90;;;;;;4938119;29;20099;-77
2024/01/29 05:14:39;;;;;;;9.85;4.20;;;3.70;99.90;;;;;;4937353;29;20532;-77
2024/01/29 05:17:04;;;;;;;9.13;4.88;;;3.70;99.90;;;;;;4937312;29;20046;-78
2024/01/29 05:19:30;;;;;;;8.93;4.75;;;3.70;99.90;;;;;;4954595;28;20027;-78
2024/01/29 05:21:56;;;;;;;8.52;4.35;;;3.60;99.90;;;;;;4954614;28;20039;-77
2024/01/29 05:24:21;;;;;;;10.10;3.97;;;3.60;99.90;;;;;;4953650;29;20019;-78
2024/01/29 05:26:47;;;;;;;9.18;4.28;;;3.60;99.90;;;;;;4937249;29;20108;-77
2024/01/29 05:29:12;;;;;;;9.02;4.20;;;3.60;99.90;;;;;;4954728;28;20054;-77
2024/01/29 05:31:38;;;;;;;8.05;3.78;;;3.50;99.90;;;;;;4937187;28;20036;-77
2024/01/29 05:34:04;;;;;;;6.53;3.80;;;3.50;99.90;;;;;;4954189;28;20024;-78
2024/01/29 05:36:29;;;;;;;6.82;3.60;;;3.40;99.90;;;;;;4954221;29;20059;-77
2024/01/29 05:38:55;;;;;;;10.75;3.95;;;3.40;99.90;;;;;;4938179;29;20028;-78
2024/01/29 05:41:20;;;;;;;6.50;3.63;;;3.40;99.90;;;;;;4937538;28;20030;-78
2024/01/29 05:43:46;;;;;;;7.85;3.65;;;3.40;99.90;;;;;;4951846;28;20035;-77
2024/01/29 05:46:11;;;;;;;7.85;3.38;;;3.40;99.90;;;;;;4954288;28;20035;-77
2024/01/29 05:48:38;;;;;;;7.70;3.63;;;3.40;99.90;;;;;;4936465;28;20031;-77
2024/01/29 05:51:03;;;;;;;8.55;3.85;;;3.40;99.90;;;;;;4936122;28;20208;-78
2024/01/29 05:53:29;;;;;;;8.77;3.78;;;3.40;99.90;;;;;;4937289;29;20117;-77
2024/01/29 05:55:54;;;;;;;8.18;3.70;;;3.40;99.90;;;;;;4951341;28;20071;-78
2024/01/29 05:58:21;;;;;;;7.18;3.63;;;3.40;99.90;;;;;;4936875;29;20032;-78
2024/01/29 06:00:46;;;;;;;8.30;3.20;;;3.40;99.90;;;;;;4935598;29;20060;-77
2024/01/29 06:03:12;;;;;;;9.35;4.28;;;3.40;99.90;;;;;;4953464;28;20032;-78
2024/01/29 06:05:38;;;;;;;8.15;3.85;;;3.40;99.90;;;;;;4954175;28;20031;-78
2024/01/29 06:08:04;;;;;;;7.68;3.80;;;3.40;99.90;;;;;;4936927;28;20055;-78
2024/01/29 06:10:29;;;;;;;9.73;4.60;;;3.40;99.90;;;;;;4952676;28;20035;-76
2024/01/29 06:12:55;;;;;;;10.15;4.63;;;3.40;99.90;;;;;;4936764;29;20047;-78
2024/01/29 06:15:21;;;;;;;7.45;4.13;;;3.40;99.90;;;;;;4949144;28;20082;-77
2024/01/29 06:17:46;;;;;;;7.85;4.18;;;3.40;99.90;;;;;;4952022;28;20031;-76
2024/01/29 06:20:12;;;;;;;9.50;3.58;;;3.40;99.90;;;;;;4936689;29;20071;-76
2024/01/29 06:22:38;;;;;;;8.63;3.92;;;3.40;99.90;;;;;;4953274;28;20083;-76
2024/01/29 06:25:05;;;;;;;7.68;3.75;;;3.40;99.90;;;;;;4935282;29;20020;-76
2024/01/29 06:27:30;;;;;;;7.22;3.85;;;3.40;99.90;;;;;;4951934;28;20032;-77
2024/01/29 06:29:56;;;;;;;11.25;4.00;;;3.30;99.90;;;;;;4935141;29;20063;-77
2024/01/29 06:32:21;;;;;;;6.40;3.38;;;3.40;99.90;;;;;;4951598;28;20043;-76
2024/01/29 06:34:47;;;;;;;6.57;3.28;;;3.30;99.90;;;;;;4951452;28;20105;-78
2024/01/29 06:37:13;;;;;;;8.38;3.53;;;3.30;99.90;;;;;;4952924;28;20036;-77
2024/01/29 06:39:39;;;;;;;7.93;3.38;;;3.30;99.90;;;;;;4935654;29;20028;-77
2024/01/29 06:42:05;;;;;;;7.53;3.25;;;3.30;99.90;;;;;;4953282;28;20059;-77
2024/01/29 06:44:30;;;;;;;7.05;3.40;;;3.20;99.90;;;;;;4952223;28;20020;-77
2024/01/29 06:46:56;;;;;;;7.85;3.20;;;3.20;99.90;;;;;;4953367;28;20115;-77
2024/01/29 06:49:30;;;;;;;10.10;3.60;;;3.20;99.90;;;;;;4949801;29;20056;-77
2024/01/29 06:51:57;;;;;;;7.38;2.97;;;3.20;99.90;;;;;;4952150;28;20027;-77
2024/01/29 06:54:22;;;;;;;8.80;3.13;;;3.20;99.90;;;;;;4954910;28;20027;-77
2024/01/29 06:56:48;;;;;;;13.45;3.70;;;3.20;99.90;;;;;;4939449;29;20116;-78
2024/01/29 06:59:14;;;;;;;8.68;3.58;;;3.10;99.90;;;;;;4954894;28;20388;-77
2024/01/29 07:01:40;;;;;;;6.68;3.28;;;3.10;99.90;;;;;;4956944;28;20028;-77
2024/01/29 07:04:05;;;;;;;7.03;3.22;;;3.10;99.90;;;;;;4939862;29;20094;-76
2024/01/29 07:06:31;;;;;;;6.10;3.20;;;3.10;99.90;;;;;;4956889;28;20062;-77
2024/01/29 07:08:57;;;;;;;7.65;3.40;;;3.10;99.90;;;;;;4939632;29;20047;-77
2024/01/29 07:11:23;;;;;;;7.22;3.08;;;3.00;99.90;;;;;;4954033;28;20055;-76
2024/01/29 07:13:49;;;;;;;8.73;3.83;;;3.00;99.90;;;;;;4955330;28;20030;-77
2024/01/29 07:16:14;;;;;;;8.82;3.60;;;3.00;99.90;;;;;;4937887;29;20042;-77
2024/01/29 07:18:40;;;;;;;7.20;3.30;;;3.00;99.90;;;;;;4936337;28;20156;-77
2024/01/29 07:21:06;;;;;;;7.50;3.47;;;3.00;99.90;;;;;;4951936;28;20054;-76
2024/01/29 07:23:32;;;;;;;6.82;3.45;;;3.00;99.90;;;;;;4934621;29;20038;-77
2024/01/29 07:25:57;;;;;;;9.45;3.80;;;3.00;99.90;;;;;;4956846;29;20031;-77
2024/01/29 07:28:23;;;;;;;8.90;3.40;;;3.00;99.90;;;;;;4936532;29;20409;-78
2024/01/29 07:30:49;;;;;;;8.30;3.88;;;3.00;99.90;;;;;;4935866;29;20042;-77
2024/01/29 07:33:14;;;;;;;7.15;3.45;;;3.00;99.90;;;;;;4932127;29;20770;-77
2024/01/29 07:35:40;;;;;;;7.38;4.15;;;3.00;99.90;;;;;;4952389;28;20099;-77
2024/01/29 07:38:05;;;;;;;9.27;3.50;;;3.00;99.90;;;;;;4952585;29;20035;-77
2024/01/29 07:40:32;;;;;;;6.63;3.17;;;3.10;99.90;;;;;;4934925;29;20086;-77
2024/01/29 07:42:59;;;;;;;10.13;3.63;;;3.10;99.90;;;;;;4946210;28;20060;-77
2024/01/29 07:45:25;;;;;;;7.60;3.53;;;3.10;99.90;;;;;;4954024;28;20035;-77
2024/01/29 07:47:51;;;;;;;6.50;3.00;;;3.20;99.90;;;;;;4937647;29;20036;-76
2024/01/29 07:50:17;;;;;;;8.10;3.58;;;3.20;99.90;;;;;;4938122;29;20115;-77
2024/01/29 07:52:43;;;;;;;8.48;3.70;;;3.20;99.90;;;;;;4934550;29;20031;-77
2024/01/29 07:55:08;;;;;;;7.32;3.70;;;3.30;99.90;;;;;;4950829;28;20035;-78
2024/01/29 07:57:34;;;;;;;10.18;4.20;;;3.30;99.90;;;;;;4953159;28;20051;-77
2024/01/29 08:00:00;;;;;;;11.40;3.72;;;3.30;99.90;;;;;;4954240;28;20116;-77
2024/01/29 08:02:25;;;;;;;6.45;3.60;;;3.50;99.90;;;;;;4949197;29;20034;-77
2024/01/29 08:04:51;;;;;;;10.40;3.80;;;3.60;99.90;;;;;;4954438;28;20046;-77
2024/01/29 08:07:17;;;;;;;10.50;4.00;;;3.80;99.90;;;;;;4932663;28;20042;-77
2024/01/29 08:09:43;;;;;;;8.63;3.58;;;3.90;99.90;;;;;;4955690;29;20048;-77
2024/01/29 08:12:08;;;;;;;8.55;3.60;;;4.00;99.90;;;;;;4938444;29;20120;-77
2024/01/29 08:14:34;;;;;;;7.28;3.80;;;4.20;99.90;;;;;;4955922;28;20071;-77
2024/01/29 08:16:59;;;;;;;12.13;4.22;;;4.40;99.90;;;;;;4955457;29;20039;-77
2024/01/29 08:19:25;;;;;;;7.30;3.90;;;4.60;99.90;;;;;;4935961;29;20027;-78
2024/01/29 08:21:50;;;;;;;8.10;3.40;;;4.80;99.90;;;;;;4954486;28;20074;-78
2024/01/29 08:24:16;;;;;;;7.65;3.55;;;5.00;99.90;;;;;;4936969;29;20087;-76
2024/01/29 08:26:41;;;;;;;7.32;3.60;;;5.20;99.90;;;;;;4937273;29;20461;-77
2024/01/29 08:29:08;;;;;;;8.75;3.90;;;5.30;99.90;;;;;;4938575;28;20027;-77
2024/01/29 08:31:33;;;;;;;6.53;3.45;;;5.50;99.90;;;;;;4935828;29;20051;-76
2024/01/29 08:33:59;;;;;;;9.70;3.65;;;5.60;99.90;;;;;;4952427;29;20032;-77
2024/01/29 08:36:25;;;;;;;9.70;3.72;;;5.80;99.90;;;;;;4953829;28;20035;-76
2024/01/29 08:38:50;;;;;;;8.18;3.50;;;6.00;99.90;;;;;;4947925;28;20039;-77
2024/01/29 08:41:16;;;;;;;8.25;4.25;;;6.20;99.90;;;;;;4935974;29;20031;-77
2024/01/29 08:43:42;;;;;;;13.90;7.18;;;6.30;99.90;;;;;;4933500;29;20043;-77
2024/01/29 08:46:08;;;;;;;10.45;5.43;;;6.40;99.90;;;;;;4953747;28;20058;-77
2024/01/29 08:48:34;;;;;;;13.70;6.40;;;6.40;99.90;;;;;;4937561;28;20024;-77
2024/01/29 08:50:59;;;;;;;11.10;6.25;;;6.50;99.90;;;;;;4937906;28;20031;-77
2024/01/29 08:53:25;;;;;;;31.58;15.40;;;6.50;99.90;;;;;;4954918;28;20078;-77
2024/01/29 08:55:51;;;;;;;12.95;6.68;;;6.60;99.90;;;;;;4955224;28;20047;-76
2024/01/29 08:58:18;;;;;;;10.93;5.90;;;6.80;99.90;;;;;;4952629;28;20059;-78
2024/01/29 09:00:44;;;;;;;16.52;10.07;;;7.00;99.90;;;;;;4954855;28;20055;-77
2024/01/29 09:03:09;;;;;;;13.90;7.30;;;7.10;99.90;;;;;;4951444;28;20023;-77
2024/01/29 09:05:36;;;;;;;20.63;9.60;;;7.10;99.90;;;;;;4918767;28;20027;-77
2024/01/29 09:08:01;;;;;;;13.63;8.90;;;7.00;99.90;;;;;;4935661;29;20051;-77
2024/01/29 09:10:27;;;;;;;15.18;7.18;;;7.00;99.90;;;;;;4953385;28;20065;-77
2024/01/29 09:12:52;;;;;;;60.00;27.40;;;7.00;99.90;;;;;;4937283;29;20028;-77
2024/01/29 09:15:18;;;;;;;13.85;7.32;;;7.30;99.90;;;;;;4935822;29;20024;-76
2024/01/29 09:17:44;;;;;;;11.43;6.70;;;7.50;99.90;;;;;;4952612;28;20039;-77
2024/01/29 09:20:11;;;;;;;14.63;8.27;;;7.80;99.90;;;;;;4937051;28;20020;-77
2024/01/29 09:22:37;;;;;;;12.80;5.63;;;7.90;99.90;;;;;;4933877;29;20026;-77
2024/01/29 09:25:03;;;;;;;9.90;6.10;;;8.00;99.90;;;;;;4953377;28;20024;-76
2024/01/29 09:27:29;;;;;;;10.02;5.75;;;8.10;99.90;;;;;;4935918;29;20038;-77
2024/01/29 09:29:55;;;;;;;13.35;6.38;;;8.20;99.90;;;;;;4936030;29;20024;-77
2024/01/29 09:32:20;;;;;;;12.93;4.57;;;8.30;99.90;;;;;;4953562;29;20030;-77
2024/01/29 09:34:46;;;;;;;8.45;4.03;;;8.20;99.90;;;;;;4936684;28;20026;-76
2024/01/29 09:37:11;;;;;;;11.85;4.25;;;8.10;99.90;;;;;;4937240;29;20074;-77
2024/01/29 09:39:37;;;;;;;7.07;4.25;;;7.90;99.90;;;;;;4936454;28;20063;-76
2024/01/29 09:42:04;;;;;;;8.32;4.75;;;7.80;99.90;;;;;;4936647;29;20519;-76
2024/01/29 09:44:38;;;;;;;7.07;4.13;;;7.70;99.90;;;;;;4936204;28;20024;-77
2024/01/29 09:47:05;;;;;;;8.02;4.05;;;7.70;99.90;;;;;;4932314;28;20043;-79
2024/01/29 09:49:33;;;;;;;8.68;4.20;;;7.70;99.90;;;;;;4935252;29;20027;-78
2024/01/29 09:51:59;;;;;;;7.38;4.20;;;7.90;99.90;;;;;;4934968;29;20039;-79
2024/01/29 09:54:25;;;;;;;10.98;4.72;;;8.10;99.90;;;;;;4952215;28;20041;-79
2024/01/29 09:56:51;;;;;;;7.25;4.10;;;8.30;99.90;;;;;;4951490;29;20032;-79
2024/01/29 09:59:16;;;;;;;9.55;4.30;;;8.60;99.90;;;;;;4935120;29;20042;-76
2024/01/29 10:01:42;;;;;;;11.00;4.28;;;8.90;99.90;;;;;;4952644;28;20035;-76
2024/01/29 10:04:08;;;;;;;8.65;3.95;;;9.10;99.90;;;;;;4952908;28;20027;-76
2024/01/29 10:06:33;;;;;;;7.10;4.10;;;9.30;99.90;;;;;;4952887;28;20122;-76
2024/01/29 10:08:59;;;;;;;8.00;4.20;;;9.50;99.90;;;;;;4931615;29;20150;-76
2024/01/29 10:11:25;;;;;;;8.35;4.43;;;9.50;99.90;;;;;;4927039;29;20032;-77
2024/01/29 10:13:58;;;;;;;6.95;4.10;;;9.60;99.90;;;;;;4929204;29;20047;-76
2024/01/29 10:16:23;;;;;;;10.43;4.60;;;9.80;99.90;;;;;;4932342;29;20043;-76
2024/01/29 10:18:59;;;;;;;11.18;5.03;;;10.00;99.90;;;;;;4925067;29;20039;-77
2024/01/29 10:21:25;;;;;;;8.23;4.03;;;10.30;99.90;;;;;;4930910;29;20461;-77
2024/01/29 10:23:58;;;;;;;8.90;4.80;;;10.50;99.90;;;;;;4931906;29;20024;-76
2024/01/29 10:26:25;;;;;;;6.95;4.10;;;10.80;99.90;;;;;;4932768;29;20610;-76
2024/01/29 10:29:05;;;;;;;9.05;4.75;;;11.10;99.90;;;;;;4932195;29;20061;-76
2024/01/29 10:31:31;;;;;;;7.53;4.63;;;11.30;99.90;;;;;;4927881;29;20059;-78
2024/01/29 10:33:58;;;;;;;7.05;4.22;;;11.30;99.90;;;;;;4932635;29;20047;-77
2024/01/29 10:36:24;;;;;;;11.88;4.63;;;11.50;99.90;;;;;;4930032;29;20039;-77
2024/01/29 10:38:50;;;;;;;9.88;4.68;;;11.60;99.90;;;;;;4930946;29;20036;-78
2024/01/29 10:41:17;;;;;;;8.88;4.50;;;11.60;99.90;;;;;;4926588;29;20041;-77
2024/01/29 10:43:51;;;;;;;8.90;4.80;;;11.60;99.90;;;;;;4931704;29;20034;-77
2024/01/29 10:46:21;;;;;;;7.78;4.63;;;11.70;99.90;;;;;;4931974;29;20404;-76
2024/01/29 10:48:48;;;;;;;6.00;4.43;;;11.70;99.90;;;;;;4933064;29;20469;-77
2024/01/29 10:51:14;;;;;;;13.23;4.78;;;11.80;99.90;;;;;;4932831;29;20051;-77
2024/01/29 10:53:41;;;;;;;11.70;5.18;;;11.90;99.90;;;;;;4934069;29;20056;-77
2024/01/29 10:56:08;;;;;;;8.60;4.93;;;12.10;99.90;;;;;;4932675;29;20044;-77
2024/01/29 10:58:38;;;;;;;10.10;5.07;;;12.20;99.90;;;;;;4932959;29;20481;-77
2024/01/29 11:01:09;;;;;;;11.38;5.15;;;12.30;99.90;;;;;;4934284;29;20016;-78
2024/01/29 11:03:36;;;;;;;7.22;4.75;;;12.40;99.90;;;;;;4932469;29;20038;-76
2024/01/29 11:06:04;;;;;;;7.60;5.15;;;12.50;99.90;;;;;;4932213;29;20047;-77
2024/01/29 11:08:33;;;;;;;8.25;4.53;;;12.50;99.90;;;;;;4932314;29;20091;-76
2024/01/29 11:11:01;;;;;;;8.38;4.80;;;12.60;99.90;;;;;;4932542;29;20062;-78
2024/01/29 11:13:29;;;;;;;9.40;5.50;;;12.50;99.90;;;;;;4932884;29;20119;-76
2024/01/29 11:15:55;;;;;;;7.95;4.95;;;12.60;99.90;;;;;;4932649;29;20044;-75
2024/01/29 11:18:21;;;;;;;8.98;6.20;;;12.70;99.90;;;;;;4932338;29;20060;-77
2024/01/29 11:20:50;;;;;;;7.72;5.10;;;12.80;99.90;;;;;;4934461;29;20065;-77
2024/01/29 11:23:15;;;;;;;13.32;6.93;;;12.90;99.90;;;;;;4933049;29;20155;-76
2024/01/29 11:25:41;;;;;;;12.38;6.30;;;13.20;99.90;;;;;;4931993;29;20520;-77
2024/01/29 11:28:08;;;;;;;7.82;5.38;;;13.40;99.90;;;;;;4932782;29;20024;-78
2024/01/29 11:30:33;;;;;;;10.63;4.97;;;13.70;99.90;;;;;;4932665;29;20056;-79
2024/01/29 11:33:17;;;;;;;8.88;6.28;;;13.90;99.90;;;;;;4932656;29;20389;-77
2024/01/29 11:35:45;;;;;;;8.57;5.35;;;14.10;99.90;;;;;;4933919;29;20118;-78
2024/01/29 11:38:11;;;;;;;9.85;5.38;;;14.40;99.90;;;;;;4933477;29;20397;-77
2024/01/29 11:40:41;;;;;;;10.13;5.80;;;14.70;99.90;;;;;;4935995;29;20031;-77
2024/01/29 11:43:11;;;;;;;9.82;5.53;;;14.90;99.90;;;;;;4936407;29;20045;-75
2024/01/29 11:45:37;;;;;;;10.70;5.07;;;15.20;99.90;;;;;;4935524;29;20548;-78
2024/01/29 11:48:11;;;;;;;9.13;5.93;;;15.50;99.90;;;;;;4937193;29;20048;-76
2024/01/29 11:50:41;;;;;;;8.30;5.32;;;15.70;99.90;;;;;;4936989;29;20028;-76
2024/01/29 11:53:23;;;;;;;11.13;5.32;;;16.00;99.90;;;;;;4935520;29;20056;-77
2024/01/29 11:55:49;;;;;;;8.65;5.22;;;16.40;99.90;;;;;;4937671;29;20083;-76
2024/01/29 11:58:18;;;;;;;7.70;5.00;;;16.70;99.90;;;;;;4937267;29;20028;-76
2024/01/29 12:00:44;;;;;;;8.57;5.75;;;17.10;99.90;;;;;;4935947;29;20028;-77
2024/01/29 12:03:12;;;;;;;10.07;5.47;;;17.50;99.90;;;;;;4936939;29;20686;-78
2024/01/29 12:05:38;;;;;;;10.45;6.00;;;17.60;99.90;;;;;;4936260;29;20032;-76
2024/01/29 12:08:14;;;;;;;10.52;5.47;;;17.70;99.90;;;;;;4940632;28;20083;-77
2024/01/29 12:10:40;;;;;;;9.55;5.85;;;17.80;99.90;;;;;;4938210;29;20037;-79
2024/01/29 12:13:17;;;;;;;13.55;6.05;;;18.00;99.90;;;;;;4955740;28;20039;-78
2024/01/29 12:15:49;;;;;;;10.23;5.50;;;18.10;99.90;;;;;;4938685;29;20069;-76
2024/01/29 12:18:21;;;;;;;11.35;6.00;;;18.10;99.90;;;;;;4939189;29;20110;-78
2024/01/29 12:20:50;;;;;;;9.68;6.00;;;18.10;99.90;;;;;;4938288;29;20035;-78
2024/01/29 12:23:17;;;;;;;13.00;6.93;;;18.10;99.90;;;;;;4938341;28;20091;-77
2024/01/29 12:25:49;;;;;;;9.77;6.60;;;18.00;99.90;;;;;;4937774;29;20710;-75
2024/01/29 12:28:15;;;;;;;13.73;7.22;;;18.00;99.90;;;;;;4938755;29;20034;-76
2024/01/29 12:31:06;;;;;;;15.75;6.72;;;17.60;99.90;;;;;;4938358;29;20027;-77
2024/01/29 12:33:32;;;;;;;12.20;7.20;;;17.40;99.90;;;;;;4937823;29;20023;-77
2024/01/29 12:36:10;;;;;;;15.60;7.63;;;17.40;99.90;;;;;;4937560;29;20563;-77
2024/01/29 12:38:36;;;;;;;11.52;7.15;;;17.40;99.90;;;;;;4955658;28;20028;-76
2024/01/29 12:41:01;;;;;;;11.98;6.70;;;17.20;99.90;;;;;;4954901;28;20477;-77
2024/01/29 12:43:28;;;;;;;12.73;6.80;;;17.10;99.90;;;;;;4937975;29;20031;-77
2024/01/29 12:46:09;;;;;;;9.77;7.07;;;17.00;99.90;;;;;;4937741;29;20126;-73
2024/01/29 12:48:35;;;;;;;11.48;7.07;;;17.10;99.90;;;;;;4954974;28;20277;-77